createdAt,value
2018-12-12T00:00:51.562Z,12.60
2018-12-12T00:03:19.032Z,12.67
2018-12-12T00:05:46.507Z,12.93
2018-12-12T00:08:13.970Z,13.37
2018-12-12T00:10:41.454Z,12.00
2018-12-12T00:13:08.919Z,13.40
2018-12-12T00:15:36.381Z,12.60
2018-12-12T00:18:04.110Z,12.60
2018-12-12T00:20:31.651Z,13.30
2018-12-12T00:22:59.118Z,13.97
2018-12-12T00:25:26.586Z,12.57
2018-12-12T00:27:54.121Z,13.40
2018-12-12T00:30:21.582Z,13.97
2018-12-12T00:32:49.064Z,14.40
2018-12-12T00:35:16.517Z,13.53
2018-12-12T00:37:43.994Z,13.33
2018-12-12T00:40:11.550Z,14.13
2018-12-12T00:42:39.030Z,14.40
2018-12-12T00:45:06.650Z,14.37
2018-12-12T00:47:34.116Z,13.63
2018-12-12T00:50:01.591Z,14.60
2018-12-12T00:52:29.054Z,13.20
2018-12-12T00:54:56.546Z,13.90
2018-12-12T00:57:24.175Z,13.70
2018-12-12T00:59:51.658Z,14.33
2018-12-12T01:02:19.114Z,15.30
2018-12-12T01:04:46.603Z,14.50
2018-12-12T01:07:14.290Z,13.47
2018-12-12T01:09:41.771Z,15.10
2018-12-12T01:12:11.219Z,14.80
2018-12-12T01:14:38.837Z,13.80
2018-12-12T01:17:06.297Z,14.50
2018-12-12T01:22:07.389Z,14.20
2018-12-12T01:24:34.864Z,15.10
2018-12-12T01:27:02.360Z,15.00
2018-12-12T01:29:29.839Z,15.47
2018-12-12T01:31:57.318Z,13.70
2018-12-12T01:34:25.928Z,15.83
2018-12-12T01:36:53.796Z,15.23
2018-12-12T01:39:21.275Z,15.10
2018-12-12T01:41:48.735Z,14.40
2018-12-12T01:44:16.214Z,15.07
2018-12-12T01:46:43.678Z,15.40
2018-12-12T01:49:11.155Z,14.27
2018-12-12T01:51:38.616Z,15.77
2018-12-12T01:54:06.092Z,16.63
2018-12-12T01:56:33.555Z,15.33
2018-12-12T01:59:06.006Z,15.23
2018-12-12T02:01:33.466Z,15.17
2018-12-12T02:04:00.931Z,16.40
2018-12-12T02:06:28.418Z,14.60
2018-12-12T02:08:55.892Z,14.80
2018-12-12T02:11:24.450Z,15.20
2018-12-12T02:13:51.939Z,15.40
2018-12-12T02:16:19.430Z,14.13
2018-12-12T02:18:46.901Z,16.70
2018-12-12T02:21:14.452Z,16.20
2018-12-12T02:23:41.907Z,15.23
2018-12-12T02:26:09.646Z,15.23
2018-12-12T02:28:37.114Z,15.60
2018-12-12T02:31:04.605Z,15.70
2018-12-12T02:33:32.204Z,15.23
2018-12-12T02:35:59.662Z,16.53
2018-12-12T02:38:27.163Z,17.47
2018-12-12T02:40:54.811Z,17.80
2018-12-12T02:43:22.282Z,16.80
2018-12-12T02:45:49.754Z,16.87
2018-12-12T02:48:17.238Z,16.10
2018-12-12T02:50:44.728Z,17.20
2018-12-12T02:53:12.286Z,18.73
2018-12-12T02:55:39.765Z,17.50
2018-12-12T02:58:07.233Z,16.80
2018-12-12T03:00:34.702Z,17.90
2018-12-12T03:03:02.168Z,17.00
2018-12-12T03:05:29.645Z,17.07
2018-12-12T03:07:57.123Z,15.97
2018-12-12T03:10:24.603Z,16.20
2018-12-12T03:12:52.080Z,17.23
2018-12-12T03:15:19.558Z,17.00
2018-12-12T03:17:47.019Z,16.77
2018-12-12T03:20:14.475Z,16.47
2018-12-12T03:22:41.947Z,16.37
2018-12-12T03:25:09.411Z,17.03
2018-12-12T03:27:36.903Z,17.17
2018-12-12T03:30:05.253Z,17.00
2018-12-12T03:32:32.745Z,17.60
2018-12-12T03:35:00.312Z,17.23
2018-12-12T03:37:27.802Z,19.00
2018-12-12T03:39:55.339Z,17.80
2018-12-12T03:42:23.184Z,16.37
2018-12-12T03:44:50.660Z,17.17
2018-12-12T03:47:18.114Z,18.73
2018-12-12T03:49:45.599Z,17.10
2018-12-12T03:52:13.055Z,18.80
2018-12-12T03:54:40.531Z,18.50
2018-12-12T03:57:08.000Z,18.37
2018-12-12T03:59:35.490Z,18.00
2018-12-12T04:02:03.104Z,17.97
2018-12-12T04:04:30.583Z,17.40
2018-12-12T04:06:58.065Z,19.70
2018-12-12T04:09:25.627Z,17.70
2018-12-12T04:11:53.098Z,17.53
2018-12-12T04:14:20.776Z,18.27
2018-12-12T04:16:48.263Z,18.17
2018-12-12T04:19:15.800Z,18.43
2018-12-12T04:21:43.292Z,17.60
2018-12-12T04:24:10.778Z,18.10
2018-12-12T04:26:39.266Z,18.73
2018-12-12T04:29:06.727Z,17.97
2018-12-12T04:31:34.208Z,16.80
2018-12-12T04:34:01.672Z,19.07
2018-12-12T04:36:29.147Z,18.77
2018-12-12T04:38:56.664Z,18.13
2018-12-12T04:41:24.122Z,16.77
2018-12-12T04:43:51.611Z,17.33
2018-12-12T04:46:19.078Z,16.53
2018-12-12T04:48:46.551Z,18.17
2018-12-12T04:51:14.005Z,16.70
2018-12-12T04:53:41.471Z,17.97
2018-12-12T04:56:08.970Z,17.07
2018-12-12T04:58:36.439Z,17.60
2018-12-12T05:01:03.905Z,17.60
2018-12-12T05:03:31.371Z,16.10
2018-12-12T05:05:58.827Z,17.60
2018-12-12T05:08:26.303Z,19.10
2018-12-12T05:10:53.767Z,17.60
2018-12-12T05:13:21.248Z,17.37
2018-12-12T05:15:48.727Z,18.07
2018-12-12T05:18:16.191Z,17.53
2018-12-12T05:20:43.746Z,16.80
2018-12-12T05:23:11.206Z,18.43
2018-12-12T05:25:38.686Z,18.00
2018-12-12T05:28:06.147Z,18.30
2018-12-12T05:30:33.626Z,16.87
2018-12-12T05:33:01.091Z,16.57
2018-12-12T05:35:28.703Z,16.67
2018-12-12T05:37:56.162Z,18.23
2018-12-12T05:40:24.031Z,17.30
2018-12-12T05:42:51.511Z,17.20
2018-12-12T05:45:19.542Z,16.77
2018-12-12T05:47:47.027Z,18.47
2018-12-12T05:50:14.494Z,16.33
2018-12-12T05:52:41.954Z,16.67
2018-12-12T05:55:09.414Z,17.30
2018-12-12T05:57:36.885Z,18.47
2018-12-12T06:00:05.162Z,18.80
2018-12-12T06:02:32.622Z,18.37
2018-12-12T06:05:00.103Z,19.73
2018-12-12T06:07:27.574Z,20.00
2018-12-12T06:09:55.060Z,20.13
2018-12-12T06:12:22.525Z,20.17
2018-12-12T06:14:50.001Z,18.47
2018-12-12T06:17:17.461Z,19.17
2018-12-12T06:19:45.305Z,18.70
2018-12-12T06:22:13.238Z,19.80
2018-12-12T06:24:41.011Z,18.37
2018-12-12T06:27:08.479Z,18.77
2018-12-12T06:29:35.949Z,18.10
2018-12-12T06:32:03.422Z,19.07
2018-12-12T06:34:30.899Z,17.60
2018-12-12T06:36:58.366Z,16.53
2018-12-12T06:39:25.858Z,16.40
2018-12-12T06:41:53.338Z,15.43
2018-12-12T06:44:20.806Z,16.73
2018-12-12T06:46:48.287Z,15.17
2018-12-12T06:49:15.767Z,16.33
2018-12-12T06:51:43.250Z,16.87
2018-12-12T06:54:10.719Z,15.87
2018-12-12T06:56:38.190Z,14.87
2018-12-12T06:59:05.679Z,14.13
2018-12-12T07:01:33.674Z,15.13
2018-12-12T07:04:01.143Z,16.17
2018-12-12T07:06:28.606Z,17.30
2018-12-12T07:08:57.034Z,16.00
2018-12-12T07:11:24.495Z,18.23
2018-12-12T07:13:52.031Z,16.50
2018-12-12T07:16:19.495Z,16.90
2018-12-12T07:18:46.977Z,15.13
2018-12-12T07:21:14.452Z,15.13
2018-12-12T07:23:41.918Z,15.00
2018-12-12T07:26:09.412Z,15.10
2018-12-12T07:28:36.889Z,14.43
2018-12-12T07:31:04.432Z,14.80
2018-12-12T07:33:31.920Z,12.93
2018-12-12T07:35:59.747Z,12.80
2018-12-12T07:38:27.383Z,30.17
2018-12-12T07:40:54.876Z,13.17
2018-12-12T07:43:22.400Z,12.97
2018-12-12T07:45:49.955Z,13.20
2018-12-12T07:48:17.420Z,13.67
2018-12-12T07:50:44.914Z,12.60
2018-12-12T07:53:12.377Z,12.20
2018-12-12T07:55:39.866Z,12.60
2018-12-12T07:58:07.327Z,12.20
2018-12-12T08:00:34.786Z,11.67
2018-12-12T08:03:06.278Z,13.37
2018-12-12T08:05:31.776Z,13.13
2018-12-12T08:07:59.266Z,13.53
2018-12-12T08:10:26.754Z,13.13
2018-12-12T08:12:54.240Z,13.67
2018-12-12T08:15:21.705Z,17.30
2018-12-12T08:17:49.203Z,17.70
2018-12-12T08:20:16.740Z,16.30
2018-12-12T08:22:44.219Z,16.07
2018-12-12T08:25:11.714Z,15.77
2018-12-12T08:27:39.435Z,15.77
2018-12-12T08:30:07.610Z,15.50
2018-12-12T08:32:35.068Z,15.77
2018-12-12T08:35:02.581Z,16.60
2018-12-12T08:37:30.155Z,16.67
2018-12-12T08:39:58.529Z,17.20
2018-12-12T08:42:26.071Z,16.43
2018-12-12T08:44:53.607Z,17.10
2018-12-12T08:47:21.062Z,18.00
2018-12-12T08:49:48.522Z,17.13
2018-12-12T08:52:16.000Z,18.17
2018-12-12T08:54:43.472Z,18.23
2018-12-12T08:57:11.228Z,16.17
2018-12-12T08:59:38.685Z,15.27
2018-12-12T09:02:06.162Z,16.93
2018-12-12T09:04:33.624Z,17.10
2018-12-12T09:07:01.128Z,17.03
2018-12-12T09:09:28.591Z,16.30
2018-12-12T09:11:56.079Z,18.30
2018-12-12T09:14:23.669Z,17.30
2018-12-12T09:16:51.143Z,18.27
2018-12-12T09:19:18.623Z,14.93
2018-12-12T09:21:46.179Z,16.00
2018-12-12T09:24:13.662Z,15.23
2018-12-12T09:26:41.133Z,15.80
2018-12-12T09:29:08.614Z,14.20
2018-12-12T09:31:36.070Z,13.87
2018-12-12T09:34:03.567Z,14.43
2018-12-12T09:36:31.035Z,13.87
2018-12-12T09:38:58.531Z,12.63
2018-12-12T09:41:26.001Z,13.90
2018-12-12T09:43:53.491Z,14.20
2018-12-12T09:46:20.968Z,14.43
2018-12-12T09:48:48.636Z,13.60
2018-12-12T09:51:16.226Z,13.13
2018-12-12T09:53:43.818Z,12.43
2018-12-12T09:56:11.394Z,12.47
2018-12-12T09:58:38.847Z,13.17
2018-12-12T10:01:06.413Z,11.93
2018-12-12T10:03:34.041Z,13.30
2018-12-12T10:06:01.644Z,11.90
2018-12-12T10:08:29.110Z,12.67
2018-12-12T10:10:56.591Z,11.97
2018-12-12T10:13:24.085Z,12.27
2018-12-12T10:15:51.561Z,13.50
2018-12-12T10:18:19.044Z,13.40
2018-12-12T10:20:46.503Z,12.80
2018-12-12T10:23:13.982Z,13.13
2018-12-12T10:25:41.448Z,13.20
2018-12-12T10:28:08.930Z,13.20
2018-12-12T10:30:36.404Z,12.90
2018-12-12T10:33:05.599Z,11.80
2018-12-12T10:35:34.919Z,11.00
2018-12-12T10:38:04.029Z,11.47
2018-12-12T10:40:32.896Z,10.80
2018-12-12T10:43:02.332Z,9.03
2018-12-12T10:45:29.803Z,9.70
2018-12-12T10:47:57.269Z,10.70
2018-12-12T10:50:24.750Z,9.50
2018-12-12T10:52:52.287Z,9.47
2018-12-12T10:55:19.772Z,10.80
2018-12-12T10:57:47.257Z,9.43
2018-12-12T11:00:14.767Z,8.80
2018-12-12T11:02:50.108Z,10.13
2018-12-12T11:05:17.762Z,9.27
2018-12-12T11:07:45.219Z,8.80
2018-12-12T11:10:12.703Z,9.80
2018-12-12T11:12:40.169Z,10.93
2018-12-12T11:15:07.729Z,9.33
2018-12-12T11:17:35.223Z,8.00
2018-12-12T11:20:02.860Z,8.63
2018-12-12T11:22:30.420Z,7.93
2018-12-12T11:24:57.981Z,7.23
2018-12-12T11:27:25.627Z,4.63
2018-12-12T11:29:53.103Z,5.87
2018-12-12T11:32:20.631Z,4.00
2018-12-12T11:34:48.119Z,2.80
2018-12-12T11:37:15.623Z,3.17
2018-12-12T11:39:43.079Z,4.47
2018-12-12T11:42:10.553Z,4.70
2018-12-12T11:44:38.038Z,3.60
2018-12-12T11:47:05.515Z,2.77
2018-12-12T11:49:32.998Z,3.73
2018-12-12T11:52:00.459Z,2.50
2018-12-12T11:54:27.946Z,3.30
2018-12-12T11:56:55.411Z,3.20
2018-12-12T11:59:22.881Z,3.10
2018-12-12T12:01:50.374Z,3.53
2018-12-12T12:04:17.957Z,4.20
2018-12-12T12:06:45.415Z,4.13
2018-12-12T12:09:12.870Z,3.27
2018-12-12T12:11:40.334Z,3.03
2018-12-12T12:14:07.802Z,2.57
2018-12-12T12:16:35.293Z,3.77
2018-12-12T12:19:02.856Z,3.40
2018-12-12T12:21:30.325Z,3.67
2018-12-12T12:23:57.799Z,4.00
2018-12-12T12:26:25.854Z,3.70
2018-12-12T12:28:53.894Z,4.43
2018-12-12T12:31:21.781Z,3.90
2018-12-12T12:33:49.508Z,3.40
2018-12-12T12:36:16.958Z,3.93
2018-12-12T12:38:44.438Z,3.43
2018-12-12T12:41:11.922Z,2.50
2018-12-12T12:43:39.402Z,3.03
2018-12-12T12:46:06.872Z,3.00
2018-12-12T12:48:34.356Z,3.07
2018-12-12T12:51:01.819Z,3.23
2018-12-12T12:53:29.291Z,3.87
2018-12-12T12:55:56.748Z,3.67
2018-12-12T12:58:24.215Z,6.90
2018-12-12T13:00:51.687Z,5.83
2018-12-12T13:03:19.184Z,4.93
2018-12-12T13:05:46.636Z,3.70
2018-12-12T13:08:14.095Z,3.90
2018-12-12T13:10:41.883Z,6.23
2018-12-12T13:13:09.681Z,7.47
2018-12-12T13:15:37.577Z,5.60
2018-12-12T13:18:05.105Z,6.10
2018-12-12T13:20:32.587Z,10.37
2018-12-12T13:23:00.066Z,5.33
2018-12-12T13:25:27.542Z,4.00
2018-12-12T13:27:55.006Z,5.03
2018-12-12T13:30:22.507Z,5.10
2018-12-12T13:32:49.967Z,4.43
2018-12-12T13:35:17.531Z,5.13
2018-12-12T13:37:45.005Z,4.03
2018-12-12T13:40:12.462Z,3.63
2018-12-12T13:42:40.021Z,4.17
2018-12-12T13:45:07.634Z,6.20
2018-12-12T13:47:35.179Z,6.93
2018-12-12T13:50:03.116Z,6.27
2018-12-12T13:52:30.582Z,5.70
2018-12-12T13:54:58.640Z,7.03
2018-12-12T13:57:26.158Z,6.90
2018-12-12T13:59:53.779Z,3.80
2018-12-12T14:02:21.286Z,2.97
2018-12-12T14:04:48.754Z,2.70
2018-12-12T14:07:16.217Z,2.97
2018-12-12T14:09:43.736Z,1.80
2018-12-12T14:12:17.105Z,1.80
2018-12-12T14:14:40.706Z,2.00
2018-12-12T14:17:08.189Z,2.17
2018-12-12T14:19:36.038Z,4.80
2018-12-12T14:22:03.836Z,3.27
2018-12-12T14:24:31.503Z,5.03
2018-12-12T14:26:59.613Z,7.83
2018-12-12T14:29:30.129Z,6.57
2018-12-12T14:31:57.606Z,6.70
2018-12-12T14:34:29.259Z,9.80
2018-12-12T14:36:54.554Z,4.37
2018-12-12T14:39:22.051Z,3.20
2018-12-12T14:41:49.579Z,3.23
2018-12-12T14:44:17.090Z,3.70
2018-12-12T14:46:44.575Z,4.30
2018-12-12T14:49:13.052Z,4.47
2018-12-12T14:51:40.534Z,4.43
2018-12-12T14:54:08.064Z,4.43
2018-12-12T14:56:35.584Z,4.50
2018-12-12T14:59:03.039Z,4.90
2018-12-12T15:01:30.526Z,4.57
2018-12-12T15:03:58.005Z,4.73
2018-12-12T15:06:25.481Z,4.40
2018-12-12T15:08:52.976Z,4.77
2018-12-12T15:11:20.442Z,5.47
2018-12-12T15:13:47.931Z,10.07
2018-12-12T15:16:15.414Z,9.60
2018-12-12T15:18:42.881Z,4.50
2018-12-12T15:21:10.351Z,5.13
2018-12-12T15:23:37.819Z,4.40
2018-12-12T15:26:05.281Z,5.50
2018-12-12T15:28:32.869Z,12.90
2018-12-12T15:31:00.318Z,7.10
2018-12-12T15:33:27.872Z,5.90
2018-12-12T15:35:55.422Z,5.40
2018-12-12T15:38:22.882Z,4.13
2018-12-12T15:40:50.335Z,4.33
2018-12-12T15:43:17.815Z,4.90
2018-12-12T15:45:45.273Z,4.47
2018-12-12T15:48:12.761Z,4.97
2018-12-12T15:50:40.217Z,4.90
2018-12-12T15:53:07.671Z,5.70
2018-12-12T15:55:35.230Z,5.43
2018-12-12T15:58:02.697Z,4.93
2018-12-12T16:07:30.432Z,7.53
2018-12-12T16:09:57.899Z,4.50
2018-12-12T16:12:25.399Z,4.40
2018-12-12T16:14:52.844Z,5.07
2018-12-12T16:17:20.310Z,4.50
2018-12-12T16:19:47.980Z,4.30
2018-12-12T16:22:15.698Z,6.33
2018-12-12T16:24:43.150Z,5.83
2018-12-12T16:27:10.631Z,4.23
2018-12-12T16:29:38.088Z,5.00
2018-12-12T16:32:05.535Z,4.23
2018-12-12T16:34:33.009Z,5.10
2018-12-12T16:37:00.474Z,5.37
2018-12-12T16:39:27.935Z,5.40
2018-12-12T16:41:55.391Z,5.23
2018-12-12T16:44:22.864Z,5.40
2018-12-12T16:46:50.334Z,5.57
2018-12-12T16:49:18.391Z,6.27
2018-12-12T16:51:45.864Z,6.60
2018-12-12T16:54:13.346Z,6.37
2018-12-12T16:56:40.827Z,6.67
2018-12-12T16:59:08.290Z,6.80
2018-12-12T17:01:35.754Z,7.00
2018-12-12T17:04:03.210Z,7.73
2018-12-12T17:06:30.693Z,7.10
2018-12-12T17:08:58.156Z,7.00
2018-12-12T17:11:25.920Z,7.40
2018-12-12T17:13:53.369Z,7.50
2018-12-12T17:16:20.847Z,7.93
2018-12-12T17:18:48.316Z,8.30
2018-12-12T17:21:16.878Z,8.67
2018-12-12T17:23:44.374Z,7.50
2018-12-12T17:26:11.847Z,7.97
2018-12-12T17:28:39.313Z,7.20
2018-12-12T17:31:06.762Z,8.60
2018-12-12T17:33:34.245Z,7.40
2018-12-12T17:36:01.700Z,7.80
2018-12-12T17:38:29.183Z,8.90
2018-12-12T17:40:56.693Z,8.33
2018-12-12T17:43:24.159Z,8.83
2018-12-12T17:45:51.617Z,8.80
2018-12-12T17:48:19.097Z,8.87
2018-12-12T17:50:46.547Z,7.23
2018-12-12T17:53:14.023Z,7.50
2018-12-12T17:55:41.478Z,7.27
2018-12-12T17:58:08.948Z,7.43
2018-12-12T18:00:36.429Z,6.77
2018-12-12T18:03:03.890Z,6.90
2018-12-12T18:05:31.374Z,6.80
2018-12-12T18:07:59.114Z,6.67
2018-12-12T18:10:26.706Z,6.80
2018-12-12T18:12:54.167Z,6.77
2018-12-12T18:15:21.631Z,7.80
2018-12-12T18:17:49.092Z,7.53
2018-12-12T18:20:16.567Z,7.30
2018-12-12T18:22:44.058Z,7.90
2018-12-12T18:25:11.615Z,6.70
2018-12-12T18:27:39.074Z,7.10
2018-12-12T18:30:07.158Z,6.30
2018-12-12T18:32:34.623Z,7.50
2018-12-12T18:35:02.191Z,7.17
2018-12-12T18:37:29.819Z,6.90
2018-12-12T18:39:57.484Z,6.97
2018-12-12T18:42:25.043Z,6.97
2018-12-12T18:44:52.524Z,6.57
2018-12-12T18:47:20.028Z,5.93
2018-12-12T18:49:47.589Z,5.70
2018-12-12T18:52:15.170Z,6.07
2018-12-12T18:54:42.630Z,5.63
2018-12-12T18:57:10.327Z,6.07
2018-12-12T18:59:37.787Z,7.03
2018-12-12T19:02:05.413Z,5.40
2018-12-12T19:04:33.018Z,6.13
2018-12-12T19:07:00.485Z,6.47
2018-12-12T19:09:27.959Z,6.20
2018-12-12T19:11:55.490Z,6.07
2018-12-12T19:14:22.966Z,5.53
2018-12-12T19:16:50.463Z,6.00
2018-12-12T19:19:17.982Z,6.07
2018-12-12T19:21:45.613Z,5.37
2018-12-12T19:24:13.087Z,7.10
2018-12-12T19:26:40.607Z,6.10
2018-12-12T19:29:08.531Z,5.70
2018-12-12T19:31:35.975Z,5.87
2018-12-12T19:34:03.466Z,5.67
2018-12-12T19:36:30.974Z,5.73
2018-12-12T19:38:58.446Z,4.80
2018-12-12T19:41:25.983Z,4.23
2018-12-12T19:43:53.526Z,4.90
2018-12-12T19:46:21.007Z,4.50
2018-12-12T19:48:48.472Z,4.57
2018-12-12T19:51:16.042Z,4.40
2018-12-12T19:53:43.499Z,5.10
2018-12-12T19:56:11.042Z,4.00
2018-12-12T19:58:38.538Z,3.90
2018-12-12T20:01:06.122Z,4.73
2018-12-12T20:03:33.595Z,4.80
2018-12-12T20:06:01.092Z,4.53
2018-12-12T20:08:28.576Z,4.90
2018-12-12T20:10:56.037Z,5.37
2018-12-12T20:13:23.526Z,5.40
2018-12-12T20:15:51.087Z,4.90
2018-12-12T20:18:18.660Z,4.87
2018-12-12T20:20:46.133Z,4.80
2018-12-12T20:23:13.666Z,5.00
2018-12-12T20:25:41.394Z,4.93
2018-12-12T20:28:08.871Z,6.67
2018-12-12T20:30:36.484Z,6.47
2018-12-12T20:33:03.945Z,6.07
2018-12-12T20:35:31.409Z,6.87
2018-12-12T20:37:58.938Z,7.40
2018-12-12T20:40:26.416Z,7.97
2018-12-12T20:42:53.926Z,7.87
2018-12-12T20:45:21.405Z,10.83
2018-12-12T20:47:48.900Z,13.53
2018-12-12T20:50:16.416Z,50.20
2018-12-12T20:52:43.877Z,7.20
2018-12-12T20:55:11.386Z,8.53
2018-12-12T20:57:38.859Z,7.93
2018-12-12T21:00:06.516Z,10.23
2018-12-12T21:02:33.976Z,7.17
2018-12-12T21:05:01.458Z,8.17
2018-12-12T21:07:29.057Z,6.57
2018-12-12T21:09:56.619Z,6.47
2018-12-12T21:12:24.116Z,6.17
2018-12-12T21:14:51.637Z,6.17
2018-12-12T21:17:19.111Z,5.90
2018-12-12T21:19:46.611Z,5.43
2018-12-12T21:22:14.076Z,6.03
2018-12-12T21:24:41.688Z,6.33
2018-12-12T21:27:09.214Z,6.27
2018-12-12T21:29:36.713Z,6.80
2018-12-12T21:32:04.185Z,6.53
2018-12-12T21:34:31.682Z,6.27
2018-12-12T21:36:59.339Z,6.53
2018-12-12T21:39:26.806Z,5.60
2018-12-12T21:41:54.318Z,6.50
2018-12-12T21:44:21.783Z,6.60
2018-12-12T21:46:49.275Z,5.90
2018-12-12T21:49:16.735Z,6.43
2018-12-12T21:51:44.395Z,6.67
2018-12-12T21:54:11.856Z,6.60
2018-12-12T21:56:39.336Z,5.70
2018-12-12T21:59:07.743Z,6.13
2018-12-12T22:01:35.269Z,5.30
2018-12-12T22:04:02.818Z,5.80
2018-12-12T22:06:30.306Z,6.43
2018-12-12T22:08:57.831Z,6.57
2018-12-12T22:11:25.300Z,6.40
2018-12-12T22:13:52.774Z,7.20
2018-12-12T22:16:20.246Z,6.80
2018-12-12T22:18:47.718Z,6.90
2018-12-12T22:21:15.197Z,5.90
2018-12-12T22:23:42.678Z,4.83
2018-12-12T22:26:10.172Z,5.97
2018-12-12T22:28:37.642Z,5.43
2018-12-12T22:31:05.135Z,5.60
2018-12-12T22:33:32.590Z,6.20
2018-12-12T22:36:00.074Z,5.70
2018-12-12T22:38:27.546Z,6.10
2018-12-12T22:40:55.020Z,5.60
2018-12-12T22:43:22.513Z,5.47
2018-12-12T22:45:51.128Z,5.27
2018-12-12T22:48:20.692Z,4.67
2018-12-12T22:50:48.142Z,5.37
2018-12-12T22:53:15.615Z,5.00
2018-12-12T22:55:43.080Z,5.13
2018-12-12T22:58:10.547Z,5.23
2018-12-12T23:00:38.806Z,5.30
2018-12-12T23:03:06.262Z,5.10
2018-12-12T23:05:33.763Z,5.70
2018-12-12T23:08:01.247Z,6.20
2018-12-12T23:10:28.723Z,5.87
2018-12-12T23:12:56.179Z,6.73
2018-12-12T23:15:25.022Z,6.13
2018-12-12T23:17:52.578Z,6.00
2018-12-12T23:20:20.044Z,6.10
2018-12-12T23:22:47.530Z,5.60
2018-12-12T23:25:15.032Z,6.57
2018-12-12T23:27:42.499Z,6.00
2018-12-12T23:30:10.105Z,5.70
2018-12-12T23:32:37.581Z,6.17
2018-12-12T23:35:05.211Z,5.67
2018-12-12T23:37:32.666Z,7.63
2018-12-12T23:40:00.139Z,6.83
2018-12-12T23:42:27.598Z,6.13
2018-12-12T23:44:55.076Z,5.30
2018-12-12T23:47:22.544Z,5.60
2018-12-12T23:49:50.016Z,6.43
2018-12-12T23:52:17.487Z,7.03
2018-12-12T23:54:44.943Z,5.70
2018-12-12T23:57:12.428Z,6.33
2018-12-12T23:59:39.891Z,6.43
